sensor_id;sensor_type;location;lat;lon;timestamp;pressure;altitude;pressure_sealevel;temperature;humidity
61318;BME280;47201;40.428;-8.436;2023-05-23T00:01:50;100228.13;;;15.31;100.00
61318;BME280;47201;40.428;-8.436;2023-05-23T00:06:26;100223.38;;;15.43;100.00
61318;BME280;47201;40.428;-8.436;2023-05-23T00:08:26;100227.41;;;15.56;100.00
61318;BME280;47201;40.428;-8.436;2023-05-23T00:10:27;100212.31;;;15.61;100.00
61318;BME280;47201;40.428;-8.436;2023-05-23T00:12:46;100207.91;;;15.62;100.00
61318;BME280;47201;40.428;-8.436;2023-05-23T00:14:48;100210.59;;;15.60;100.00
61318;BME280;47201;40.428;-8.436;2023-05-23T00:16:48;100212.47;;;15.57;100.00
61318;BME280;47201;40.428;-8.436;2023-05-23T00:18:49;100216.94;;;15.53;100.00
61318;BME280;47201;40.428;-8.436;2023-05-23T00:21:09;100220.72;;;15.44;100.00
61318;BME280;47201;40.428;-8.436;2023-05-23T00:23:11;100209.50;;;15.37;100.00
61318;BME280;47201;40.428;-8.436;2023-05-23T00:25:36;100207.97;;;15.30;100.00
61318;BME280;47201;40.428;-8.436;2023-05-23T00:27:37;100211.69;;;15.23;100.00
61318;BME280;47201;40.428;-8.436;2023-05-23T00:29:38;100210.91;;;15.19;100.00
61318;BME280;47201;40.428;-8.436;2023-05-23T00:31:38;100211.94;;;15.14;100.00
61318;BME280;47201;40.428;-8.436;2023-05-23T00:33:39;100211.16;;;15.10;100.00
61318;BME280;47201;40.428;-8.436;2023-05-23T00:35:41;100210.44;;;15.05;100.00
61318;BME280;47201;40.428;-8.436;2023-05-23T00:37:41;100211.56;;;14.96;100.00
61318;BME280;47201;40.428;-8.436;2023-05-23T00:40:01;100214.34;;;14.90;100.00
61318;BME280;47201;40.428;-8.436;2023-05-23T00:42:21;100224.09;;;14.86;100.00
61318;BME280;47201;40.428;-8.436;2023-05-23T00:44:40;100222.41;;;14.84;100.00
61318;BME280;47201;40.428;-8.436;2023-05-23T00:46:59;100227.66;;;14.84;100.00
61318;BME280;47201;40.428;-8.436;2023-05-23T00:49:00;100229.44;;;14.83;100.00
61318;BME280;47201;40.428;-8.436;2023-05-23T00:51:20;100231.19;;;14.83;100.00
61318;BME280;47201;40.428;-8.436;2023-05-23T00:53:40;100232.97;;;14.82;100.00
61318;BME280;47201;40.428;-8.436;2023-05-23T00:55:43;100230.22;;;14.87;100.00
61318;BME280;47201;40.428;-8.436;2023-05-23T00:57:45;100224.09;;;14.86;100.00
61318;BME280;47201;40.428;-8.436;2023-05-23T01:07:48;100230.53;;;15.07;100.00
61318;BME280;47201;40.428;-8.436;2023-05-23T01:09:49;100227.06;;;15.05;100.00
61318;BME280;47201;40.428;-8.436;2023-05-23T01:14:32;100226.41;;;14.97;100.00
61318;BME280;47201;40.428;-8.436;2023-05-23T01:18:52;100225.16;;;14.79;100.00
61318;BME280;47201;40.428;-8.436;2023-05-23T01:23:23;100213.31;;;14.61;100.00
61318;BME280;47201;40.428;-8.436;2023-05-23T01:28:06;100209.25;;;14.49;100.00
61318;BME280;47201;40.428;-8.436;2023-05-23T01:33:07;100209.44;;;14.41;100.00
61318;BME280;47201;40.428;-8.436;2023-05-23T01:37:47;100207.53;;;14.48;100.00
61318;BME280;47201;40.428;-8.436;2023-05-23T01:47:08;100194.97;;;14.59;100.00
61318;BME280;47201;40.428;-8.436;2023-05-23T01:49:11;100200.28;;;14.58;100.00
61318;BME280;47201;40.428;-8.436;2023-05-23T01:51:31;100193.34;;;14.54;100.00
61318;BME280;47201;40.428;-8.436;2023-05-23T01:53:53;100190.88;;;14.48;100.00
61318;BME280;47201;40.428;-8.436;2023-05-23T01:58:31;100183.22;;;14.40;100.00
61318;BME280;47201;40.428;-8.436;2023-05-23T02:03:11;100178.78;;;14.40;100.00
61318;BME280;47201;40.428;-8.436;2023-05-23T02:05:30;100184.09;;;14.39;100.00
61318;BME280;47201;40.428;-8.436;2023-05-23T02:07:31;100179.03;;;14.31;100.00
61318;BME280;47201;40.428;-8.436;2023-05-23T02:09:32;100173.94;;;14.25;100.00
61318;BME280;47201;40.428;-8.436;2023-05-23T02:11:33;100171.41;;;14.20;100.00
61318;BME280;47201;40.428;-8.436;2023-05-23T02:16:13;100178.44;;;14.20;100.00
61318;BME280;47201;40.428;-8.436;2023-05-23T02:18:14;100170.59;;;14.18;100.00
61318;BME280;47201;40.428;-8.436;2023-05-23T02:20:16;100170.41;;;14.26;100.00
61318;BME280;47201;40.428;-8.436;2023-05-23T02:32:18;100184.88;;;14.42;100.00
61318;BME280;47201;40.428;-8.436;2023-05-23T02:36:38;100177.00;;;14.42;100.00
61318;BME280;47201;40.428;-8.436;2023-05-23T02:38:39;100167.22;;;14.48;100.00
61318;BME280;47201;40.428;-8.436;2023-05-23T02:43:18;100171.41;;;14.55;100.00
61318;BME280;47201;40.428;-8.436;2023-05-23T02:45:20;100165.41;;;14.50;100.00
61318;BME280;47201;40.428;-8.436;2023-05-23T02:47:20;100174.38;;;14.41;100.00
61318;BME280;47201;40.428;-8.436;2023-05-23T02:49:22;100165.94;;;14.30;100.00
61318;BME280;47201;40.428;-8.436;2023-05-23T02:51:24;100170.56;;;14.20;100.00
61318;BME280;47201;40.428;-8.436;2023-05-23T02:53:44;100169.81;;;14.15;100.00
61318;BME280;47201;40.428;-8.436;2023-05-23T02:55:45;100162.00;;;14.11;100.00
61318;BME280;47201;40.428;-8.436;2023-05-23T02:57:45;100170.72;;;14.14;100.00
61318;BME280;47201;40.428;-8.436;2023-05-23T02:59:47;100157.53;;;14.15;100.00
61318;BME280;47201;40.428;-8.436;2023-05-23T03:01:48;100161.16;;;14.11;100.00
61318;BME280;47201;40.428;-8.436;2023-05-23T03:03:48;100163.78;;;14.11;100.00
61318;BME280;47201;40.428;-8.436;2023-05-23T03:05:49;100161.16;;;14.09;100.00
61318;BME280;47201;40.428;-8.436;2023-05-23T03:07:50;100158.53;;;14.11;100.00
61318;BME280;47201;40.428;-8.436;2023-05-23T03:09:51;100160.22;;;14.12;100.00
61318;BME280;47201;40.428;-8.436;2023-05-23T03:14:50;100166.47;;;14.42;100.00
61318;BME280;47201;40.428;-8.436;2023-05-23T03:16:50;100171.56;;;14.49;100.00
61318;BME280;47201;40.428;-8.436;2023-05-23T03:18:51;100160.03;;;14.54;100.00
61318;BME280;47201;40.428;-8.436;2023-05-23T03:20:52;100154.47;;;14.65;100.00
61318;BME280;47201;40.428;-8.436;2023-05-23T03:25:35;100156.47;;;15.78;100.00
61318;BME280;47201;40.428;-8.436;2023-05-23T03:27:54;100165.00;;;16.13;100.00
61318;BME280;47201;40.428;-8.436;2023-05-23T03:32:33;100155.31;;;16.41;100.00
61318;BME280;47201;40.428;-8.436;2023-05-23T03:34:34;100163.16;;;16.42;100.00
61318;BME280;47201;40.428;-8.436;2023-05-23T03:36:56;100155.09;;;16.47;99.40
61318;BME280;47201;40.428;-8.436;2023-05-23T03:39:15;100158.91;;;16.63;95.59
61318;BME280;47201;40.428;-8.436;2023-05-23T03:41:35;100162.78;;;16.78;93.87
61318;BME280;47201;40.428;-8.436;2023-05-23T03:52:09;100154.66;;;17.32;87.81
61318;BME280;47201;40.428;-8.436;2023-05-23T03:54:10;100153.56;;;17.38;87.17
61318;BME280;47201;40.428;-8.436;2023-05-23T03:56:11;100153.47;;;17.41;85.99
61318;BME280;47201;40.428;-8.436;2023-05-23T04:03:16;100161.81;;;17.52;85.72
61318;BME280;47201;40.428;-8.436;2023-05-23T04:21:05;100169.91;;;17.94;80.78
61318;BME280;47201;40.428;-8.436;2023-05-23T04:23:11;100162.88;;;17.92;81.02
61318;BME280;47201;40.428;-8.436;2023-05-23T04:25:14;100155.22;;;17.86;81.20
61318;BME280;47201;40.428;-8.436;2023-05-23T04:29:44;100150.69;;;17.88;80.92
61318;BME280;47201;40.428;-8.436;2023-05-23T04:31:46;100160.00;;;17.99;79.47
61318;BME280;47201;40.428;-8.436;2023-05-23T04:33:47;100147.19;;;18.10;78.98
61318;BME280;47201;40.428;-8.436;2023-05-23T04:35:50;100157.91;;;18.07;78.78
61318;BME280;47201;40.428;-8.436;2023-05-23T04:40:47;100162.00;;;17.92;80.70
61318;BME280;47201;40.428;-8.436;2023-05-23T04:46:00;100165.03;;;17.83;80.85
61318;BME280;47201;40.428;-8.436;2023-05-23T04:50:34;100178.19;;;17.84;80.78
61318;BME280;47201;40.428;-8.436;2023-05-23T04:52:37;100175.47;;;17.86;80.97
61318;BME280;47201;40.428;-8.436;2023-05-23T04:57:16;100178.19;;;17.84;81.23
61318;BME280;47201;40.428;-8.436;2023-05-23T05:02:14;100174.50;;;17.88;80.58
61318;BME280;47201;40.428;-8.436;2023-05-23T05:04:37;100169.94;;;17.92;80.05
61318;BME280;47201;40.428;-8.436;2023-05-23T05:06:39;100168.28;;;17.89;80.29
61318;BME280;47201;40.428;-8.436;2023-05-23T05:08:42;100167.34;;;17.90;79.35
61318;BME280;47201;40.428;-8.436;2023-05-23T05:10:44;100163.56;;;17.98;78.58
61318;BME280;47201;40.428;-8.436;2023-05-23T05:12:46;100160.00;;;17.99;79.09
61318;BME280;47201;40.428;-8.436;2023-05-23T05:15:07;100167.69;;;18.05;78.83
61318;BME280;47201;40.428;-8.436;2023-05-23T05:17:10;100166.59;;;18.11;78.06
61318;BME280;47201;40.428;-8.436;2023-05-23T05:19:21;100160.56;;;18.07;78.24
61318;BME280;47201;40.428;-8.436;2023-05-23T05:21:21;100156.25;;;18.04;78.72
61318;BME280;47201;40.428;-8.436;2023-05-23T05:23:40;100156.19;;;18.06;77.98
61318;BME280;47201;40.428;-8.436;2023-05-23T05:30:42;100172.34;;;18.20;77.66
61318;BME280;47201;40.428;-8.436;2023-05-23T05:35:33;100173.16;;;18.22;78.40
61318;BME280;47201;40.428;-8.436;2023-05-23T05:37:38;100166.66;;;18.09;78.27
61318;BME280;47201;40.428;-8.436;2023-05-23T05:39:38;100179.19;;;18.04;78.46
61318;BME280;47201;40.428;-8.436;2023-05-23T05:47:34;100187.81;;;18.09;78.02
61318;BME280;47201;40.428;-8.436;2023-05-23T05:54:58;100197.78;;;18.02;78.28
61318;BME280;47201;40.428;-8.436;2023-05-23T05:57:18;100206.56;;;18.03;78.07
61318;BME280;47201;40.428;-8.436;2023-05-23T06:06:36;100193.50;;;18.20;77.71
61318;BME280;47201;40.428;-8.436;2023-05-23T06:10:55;100207.47;;;18.24;77.57
61318;BME280;47201;40.428;-8.436;2023-05-23T06:16:11;100198.41;;;18.30;76.53
61318;BME280;47201;40.428;-8.436;2023-05-23T06:21:08;100204.97;;;18.42;75.71
61318;BME280;47201;40.428;-8.436;2023-05-23T06:26:07;100207.09;;;18.54;76.19
61318;BME280;47201;40.428;-8.436;2023-05-23T06:31:06;100208.91;;;18.53;75.19
61318;BME280;47201;40.428;-8.436;2023-05-23T06:35:51;100204.06;;;18.63;74.43
61318;BME280;47201;40.428;-8.436;2023-05-23T06:38:10;100208.00;;;18.74;74.64
61318;BME280;47201;40.428;-8.436;2023-05-23T06:40:29;100214.00;;;18.79;74.78
61318;BME280;47201;40.428;-8.436;2023-05-23T06:42:32;100199.34;;;18.70;74.49
61318;BME280;47201;40.428;-8.436;2023-05-23T06:44:51;100202.78;;;18.72;74.71
61318;BME280;47201;40.428;-8.436;2023-05-23T06:46:52;100205.03;;;18.81;74.90
61318;BME280;47201;40.428;-8.436;2023-05-23T06:51:55;100214.31;;;18.92;74.88
61318;BME280;47201;40.428;-8.436;2023-05-23T07:07:31;100212.44;;;19.33;71.27
61318;BME280;47201;40.428;-8.436;2023-05-23T07:09:31;100209.47;;;19.41;71.15
61318;BME280;47201;40.428;-8.436;2023-05-23T07:11:41;100212.47;;;19.53;71.52
61318;BME280;47201;40.428;-8.436;2023-05-23T07:13:43;100200.81;;;19.38;71.84
61318;BME280;47201;40.428;-8.436;2023-05-23T07:15:50;100199.38;;;19.30;71.36
61318;BME280;47201;40.428;-8.436;2023-05-23T07:17:52;100217.50;;;19.40;72.44
61318;BME280;47201;40.428;-8.436;2023-05-23T07:19:53;100213.88;;;19.41;72.41
61318;BME280;47201;40.428;-8.436;2023-05-23T07:22:12;100221.28;;;19.34;72.49
61318;BME280;47201;40.428;-8.436;2023-05-23T07:24:15;100218.13;;;19.45;72.05
61318;BME280;47201;40.428;-8.436;2023-05-23T07:26:16;100206.38;;;19.31;72.55
61318;BME280;47201;40.428;-8.436;2023-05-23T07:28:25;100217.13;;;19.28;72.70
61318;BME280;47201;40.428;-8.436;2023-05-23T07:30:27;100217.75;;;19.33;72.35
61318;BME280;47201;40.428;-8.436;2023-05-23T07:32:28;100200.22;;;19.31;71.58
61318;BME280;47201;40.428;-8.436;2023-05-23T07:34:28;100226.66;;;19.52;71.75
61318;BME280;47201;40.428;-8.436;2023-05-23T07:36:48;100222.84;;;19.76;70.81
61318;BME280;47201;40.428;-8.436;2023-05-23T07:38:49;100222.84;;;19.76;71.64
61318;BME280;47201;40.428;-8.436;2023-05-23T07:40:50;100231.19;;;19.69;70.81
61318;BME280;47201;40.428;-8.436;2023-05-23T07:42:51;100214.81;;;19.78;70.74
61318;BME280;47201;40.428;-8.436;2023-05-23T07:44:52;100215.53;;;19.81;70.53
61318;BME280;47201;40.428;-8.436;2023-05-23T07:46:53;100221.22;;;19.93;69.61
61318;BME280;47201;40.428;-8.436;2023-05-23T07:48:55;100214.09;;;19.74;70.64
61318;BME280;47201;40.428;-8.436;2023-05-23T07:50:56;100224.72;;;19.93;70.40
61318;BME280;47201;40.428;-8.436;2023-05-23T07:53:15;100230.19;;;20.08;69.49
61318;BME280;47201;40.428;-8.436;2023-05-23T07:55:16;100227.34;;;20.12;69.67
61318;BME280;47201;40.428;-8.436;2023-05-23T07:57:17;100217.66;;;20.11;69.23
61318;BME280;47201;40.428;-8.436;2023-05-23T07:59:19;100213.66;;;19.84;70.39
61318;BME280;47201;40.428;-8.436;2023-05-23T08:01:22;100216.84;;;19.92;70.31
61318;BME280;47201;40.428;-8.436;2023-05-23T08:03:43;100223.69;;;19.96;71.32
61318;BME280;47201;40.428;-8.436;2023-05-23T08:05:50;100221.97;;;20.14;69.48
61318;BME280;47201;40.428;-8.436;2023-05-23T08:07:50;100229.22;;;20.10;70.56
61318;BME280;47201;40.428;-8.436;2023-05-23T08:09:56;100224.84;;;20.09;69.45
61318;BME280;47201;40.428;-8.436;2023-05-23T08:11:57;100230.78;;;20.15;70.24
61318;BME280;47201;40.428;-8.436;2023-05-23T08:14:16;100235.94;;;20.35;69.65
61318;BME280;47201;40.428;-8.436;2023-05-23T08:16:31;100222.69;;;20.53;69.11
61318;BME280;47201;40.428;-8.436;2023-05-23T08:18:31;100219.25;;;20.51;68.54
61318;BME280;47201;40.428;-8.436;2023-05-23T08:20:32;100213.94;;;20.51;68.67
61318;BME280;47201;40.428;-8.436;2023-05-23T08:22:33;100207.00;;;20.66;67.89
61318;BME280;47201;40.428;-8.436;2023-05-23T08:24:34;100212.91;;;20.71;68.30
61318;BME280;47201;40.428;-8.436;2023-05-23T08:26:38;100201.44;;;20.88;67.36
61318;BME280;47201;40.428;-8.436;2023-05-23T08:28:42;100210.78;;;21.13;67.36
61318;BME280;47201;40.428;-8.436;2023-05-23T08:30:42;100219.47;;;21.32;66.34
61318;BME280;47201;40.428;-8.436;2023-05-23T08:32:43;100222.44;;;21.76;64.90
61318;BME280;47201;40.428;-8.436;2023-05-23T08:35:02;100232.72;;;23.34;59.67
61318;BME280;47201;40.428;-8.436;2023-05-23T08:37:04;100235.13;;;25.01;55.80
61318;BME280;47201;40.428;-8.436;2023-05-23T08:39:06;100235.94;;;27.45;50.97
61318;BME280;47201;40.428;-8.436;2023-05-23T08:41:21;100241.25;;;29.59;45.73
61318;BME280;47201;40.428;-8.436;2023-05-23T08:43:24;100249.41;;;30.97;44.36
61318;BME280;47201;40.428;-8.436;2023-05-23T08:45:44;100253.19;;;32.25;42.45
61318;BME280;47201;40.428;-8.436;2023-05-23T08:47:47;100259.66;;;30.74;45.82
61318;BME280;47201;40.428;-8.436;2023-05-23T08:49:54;100249.88;;;31.30;46.95
61318;BME280;47201;40.428;-8.436;2023-05-23T08:51:58;100259.81;;;30.72;49.10
61318;BME280;47201;40.428;-8.436;2023-05-23T08:54:20;100260.59;;;29.84;52.23
61318;BME280;47201;40.428;-8.436;2023-05-23T09:02:33;100245.97;;;29.05;59.46
61318;BME280;47201;40.428;-8.436;2023-05-23T09:04:44;100256.56;;;28.43;62.42
61318;BME280;47201;40.428;-8.436;2023-05-23T09:06:54;100246.75;;;27.77;65.12
61318;BME280;47201;40.428;-8.436;2023-05-23T09:11:17;100251.28;;;26.62;69.57
61318;BME280;47201;40.428;-8.436;2023-05-23T09:13:21;100264.56;;;26.63;70.27
61318;BME280;47201;40.428;-8.436;2023-05-23T09:15:25;100250.97;;;26.89;69.59
61318;BME280;47201;40.428;-8.436;2023-05-23T09:17:27;100247.53;;;28.12;65.56
61318;BME280;47201;40.428;-8.436;2023-05-23T09:19:29;100250.78;;;29.64;62.59
61318;BME280;47201;40.428;-8.436;2023-05-23T09:21:49;100250.72;;;30.34;60.50
61318;BME280;47201;40.428;-8.436;2023-05-23T09:24:08;100254.78;;;29.89;62.63
61318;BME280;47201;40.428;-8.436;2023-05-23T09:26:28;100264.47;;;31.65;59.35
61318;BME280;47201;40.428;-8.436;2023-05-23T09:28:31;100261.50;;;33.21;56.54
61318;BME280;47201;40.428;-8.436;2023-05-23T09:30:33;100253.03;;;34.02;54.52
61318;BME280;47201;40.428;-8.436;2023-05-23T09:32:34;100256.81;;;34.50;55.62
61318;BME280;47201;40.428;-8.436;2023-05-23T09:34:34;100271.00;;;35.10;55.47
61318;BME280;47201;40.428;-8.436;2023-05-23T09:36:39;100267.22;;;35.44;55.21
61318;BME280;47201;40.428;-8.436;2023-05-23T09:38:45;100272.28;;;35.39;56.54
61318;BME280;47201;40.428;-8.436;2023-05-23T09:40:46;100266.66;;;34.59;59.24
61318;BME280;47201;40.428;-8.436;2023-05-23T09:42:47;100259.84;;;33.55;63.03
61318;BME280;47201;40.428;-8.436;2023-05-23T09:44:49;100264.38;;;33.54;63.58
61318;BME280;47201;40.428;-8.436;2023-05-23T09:46:50;100266.63;;;34.10;64.28
61318;BME280;47201;40.428;-8.436;2023-05-23T09:49:15;100269.50;;;34.74;63.04
61318;BME280;47201;40.428;-8.436;2023-05-23T09:51:38;100261.25;;;32.62;68.77
61318;BME280;47201;40.428;-8.436;2023-05-23T09:53:39;100263.72;;;32.19;70.70
61318;BME280;47201;40.428;-8.436;2023-05-23T09:55:41;100257.22;;;30.90;72.68
61318;BME280;47201;40.428;-8.436;2023-05-23T09:57:52;100263.00;;;31.15;74.00
61318;BME280;47201;40.428;-8.436;2023-05-23T09:59:57;100260.94;;;31.92;72.10
61318;BME280;47201;40.428;-8.436;2023-05-23T10:01:59;100260.09;;;32.64;71.02
61318;BME280;47201;40.428;-8.436;2023-05-23T10:04:24;100256.69;;;32.08;71.91
61318;BME280;47201;40.428;-8.436;2023-05-23T10:06:49;100255.16;;;30.25;75.75
61318;BME280;47201;40.428;-8.436;2023-05-23T10:09:15;100265.00;;;31.13;74.75
61318;BME280;47201;40.428;-8.436;2023-05-23T10:11:52;100266.72;;;31.04;75.14
61318;BME280;47201;40.428;-8.436;2023-05-23T10:13:58;100265.25;;;30.52;76.72
61318;BME280;47201;40.428;-8.436;2023-05-23T10:18:54;100261.31;;;30.94;76.37
61318;BME280;47201;40.428;-8.436;2023-05-23T10:21:01;100252.91;;;31.07;75.17
61318;BME280;47201;40.428;-8.436;2023-05-23T10:23:22;100254.75;;;31.16;74.97
61318;BME280;47201;40.428;-8.436;2023-05-23T10:25:43;100261.97;;;32.09;74.14
61318;BME280;47201;40.428;-8.436;2023-05-23T10:32:42;100263.22;;;36.18;65.10
61318;BME280;47201;40.428;-8.436;2023-05-23T10:39:05;100230.84;;;32.68;73.04
61318;BME280;47201;40.428;-8.436;2023-05-23T10:41:18;100251.44;;;28.08;82.61
61318;BME280;47201;40.428;-8.436;2023-05-23T10:43:30;100245.69;;;27.68;83.11
61318;BME280;47201;40.428;-8.436;2023-05-23T10:45:40;100229.56;;;27.34;83.81
61318;BME280;47201;40.428;-8.436;2023-05-23T10:47:42;100242.63;;;27.62;84.08
61318;BME280;47201;40.428;-8.436;2023-05-23T10:49:44;100237.22;;;28.28;83.49
61318;BME280;47201;40.428;-8.436;2023-05-23T10:51:49;100235.06;;;27.10;85.85
61318;BME280;47201;40.428;-8.436;2023-05-23T10:53:53;100232.72;;;26.94;86.18
61318;BME280;47201;40.428;-8.436;2023-05-23T10:55:55;100241.53;;;27.53;85.13
61318;BME280;47201;40.428;-8.436;2023-05-23T10:58:10;100227.94;;;26.86;86.41
61318;BME280;47201;40.428;-8.436;2023-05-23T11:00:15;100235.06;;;27.33;86.08
61318;BME280;47201;40.428;-8.436;2023-05-23T11:02:18;100241.97;;;27.92;85.03
61318;BME280;47201;40.428;-8.436;2023-05-23T11:04:26;100237.41;;;29.21;82.02
61318;BME280;47201;40.428;-8.436;2023-05-23T11:06:42;100239.81;;;29.24;81.24
61318;BME280;47201;40.428;-8.436;2023-05-23T11:08:44;100239.91;;;28.49;83.27
61318;BME280;47201;40.428;-8.436;2023-05-23T11:10:52;100228.16;;;29.14;82.59
61318;BME280;47201;40.428;-8.436;2023-05-23T11:13:05;100235.97;;;30.28;80.26
61318;BME280;47201;40.428;-8.436;2023-05-23T11:17:17;100240.75;;;33.81;73.49
61318;BME280;47201;40.428;-8.436;2023-05-23T11:21:20;100243.81;;;36.21;67.97
61318;BME280;47201;40.428;-8.436;2023-05-23T11:23:22;100237.00;;;37.02;66.92
61318;BME280;47201;40.428;-8.436;2023-05-23T11:25:42;100243.44;;;36.86;66.83
61318;BME280;47201;40.428;-8.436;2023-05-23T11:27:46;100235.53;;;36.76;67.21
61318;BME280;47201;40.428;-8.436;2023-05-23T11:29:57;100230.47;;;36.73;68.23
61318;BME280;47201;40.428;-8.436;2023-05-23T11:31:58;100226.78;;;36.65;68.36
61318;BME280;47201;40.428;-8.436;2023-05-23T11:33:59;100226.38;;;35.52;70.19
61318;BME280;47201;40.428;-8.436;2023-05-23T11:36:00;100225.69;;;35.58;70.39
61318;BME280;47201;40.428;-8.436;2023-05-23T11:38:21;100229.50;;;36.65;69.05
61318;BME280;47201;40.428;-8.436;2023-05-23T11:42:42;100226.47;;;36.45;69.90
61318;BME280;47201;40.428;-8.436;2023-05-23T11:49:44;100219.19;;;35.60;71.75
61318;BME280;47201;40.428;-8.436;2023-05-23T11:56:43;100213.69;;;36.46;71.32
61318;BME280;47201;40.428;-8.436;2023-05-23T11:59:03;100214.50;;;34.97;73.31
61318;BME280;47201;40.428;-8.436;2023-05-23T12:01:08;100212.03;;;34.62;73.88
61318;BME280;47201;40.428;-8.436;2023-05-23T12:05:28;100202.19;;;33.87;75.50
61318;BME280;47201;40.428;-8.436;2023-05-23T12:07:48;100196.84;;;33.61;76.37
61318;BME280;47201;40.428;-8.436;2023-05-23T12:09:48;100204.22;;;33.85;76.10
61318;BME280;47201;40.428;-8.436;2023-05-23T12:12:27;100202.47;;;32.46;77.97
61318;BME280;47201;40.428;-8.436;2023-05-23T12:17:05;100190.88;;;30.97;81.30
61318;BME280;47201;40.428;-8.436;2023-05-23T12:19:06;100192.78;;;30.77;81.34
61318;BME280;47201;40.428;-8.436;2023-05-23T12:31:20;100169.31;;;30.20;82.85
61318;BME280;47201;40.428;-8.436;2023-05-23T12:33:40;100163.75;;;30.22;82.91
61318;BME280;47201;40.428;-8.436;2023-05-23T12:36:11;100164.91;;;30.19;82.50
61318;BME280;47201;40.428;-8.436;2023-05-23T12:38:15;100166.50;;;29.93;83.50
61318;BME280;47201;40.428;-8.436;2023-05-23T12:40:19;100165.75;;;30.10;82.84
61318;BME280;47201;40.428;-8.436;2023-05-23T12:42:43;100159.97;;;30.05;82.57
61318;BME280;47201;40.428;-8.436;2023-05-23T12:45:02;100164.88;;;30.39;82.03
61318;BME280;47201;40.428;-8.436;2023-05-23T12:49:43;100156.94;;;30.37;81.90
61318;BME280;47201;40.428;-8.436;2023-05-23T12:52:04;100164.88;;;29.80;82.76
61318;BME280;47201;40.428;-8.436;2023-05-23T12:54:08;100154.97;;;30.10;82.07
61318;BME280;47201;40.428;-8.436;2023-05-23T12:56:28;100145.31;;;30.27;82.14
61318;BME280;47201;40.428;-8.436;2023-05-23T13:01:07;100147.13;;;30.36;81.61
61318;BME280;47201;40.428;-8.436;2023-05-23T13:05:46;100144.41;;;31.31;80.33
61318;BME280;47201;40.428;-8.436;2023-05-23T13:07:47;100147.81;;;31.33;80.04
61318;BME280;47201;40.428;-8.436;2023-05-23T13:09:49;100141.09;;;31.20;80.23
61318;BME280;47201;40.428;-8.436;2023-05-23T13:11:49;100138.34;;;30.92;80.50
61318;BME280;47201;40.428;-8.436;2023-05-23T13:13:50;100139.56;;;30.69;81.00
61318;BME280;47201;40.428;-8.436;2023-05-23T13:15:52;100138.16;;;30.75;81.40
61318;BME280;47201;40.428;-8.436;2023-05-23T13:17:53;100133.84;;;30.82;80.80
61318;BME280;47201;40.428;-8.436;2023-05-23T13:19:54;100127.16;;;30.86;81.00
61318;BME280;47201;40.428;-8.436;2023-05-23T13:22:13;100139.19;;;30.45;81.56
61318;BME280;47201;40.428;-8.436;2023-05-23T13:24:33;100136.28;;;29.99;82.25
61318;BME280;47201;40.428;-8.436;2023-05-23T13:26:35;100133.78;;;29.37;82.80
61318;BME280;47201;40.428;-8.436;2023-05-23T13:28:36;100124.69;;;28.87;84.03
61318;BME280;47201;40.428;-8.436;2023-05-23T13:30:37;100119.84;;;28.81;84.82
61318;BME280;47201;40.428;-8.436;2023-05-23T13:32:38;100117.66;;;28.44;87.13
61318;BME280;47201;40.428;-8.436;2023-05-23T13:34:40;100122.44;;;28.19;87.35
61318;BME280;47201;40.428;-8.436;2023-05-23T13:37:00;100124.25;;;27.97;88.23
61318;BME280;47201;40.428;-8.436;2023-05-23T13:39:01;100124.19;;;27.76;89.18
61318;BME280;47201;40.428;-8.436;2023-05-23T13:41:03;100121.59;;;27.53;90.52
61318;BME280;47201;40.428;-8.436;2023-05-23T13:43:22;100130.19;;;27.02;94.65
61318;BME280;47201;40.428;-8.436;2023-05-23T13:45:23;100122.94;;;26.45;98.47
61318;BME280;47201;40.428;-8.436;2023-05-23T13:47:24;100120.03;;;26.02;100.00
61318;BME280;47201;40.428;-8.436;2023-05-23T13:49:25;100119.06;;;25.78;100.00
61318;BME280;47201;40.428;-8.436;2023-05-23T13:51:26;100116.34;;;25.67;100.00
61318;BME280;47201;40.428;-8.436;2023-05-23T13:53:27;100106.31;;;25.58;100.00
61318;BME280;47201;40.428;-8.436;2023-05-23T13:55:28;100099.66;;;25.63;100.00
61318;BME280;47201;40.428;-8.436;2023-05-23T13:57:30;100094.88;;;25.80;100.00
61318;BME280;47201;40.428;-8.436;2023-05-23T13:59:31;100099.03;;;25.95;100.00
61318;BME280;47201;40.428;-8.436;2023-05-23T14:01:32;100102.97;;;26.03;100.00
61318;BME280;47201;40.428;-8.436;2023-05-23T14:03:32;100104.44;;;25.71;98.55
61318;BME280;47201;40.428;-8.436;2023-05-23T14:05:33;100102.28;;;25.52;98.18
61318;BME280;47201;40.428;-8.436;2023-05-23T14:07:35;100109.06;;;25.32;97.91
61318;BME280;47201;40.428;-8.436;2023-05-23T14:09:36;100104.19;;;24.76;100.00
61318;BME280;47201;40.428;-8.436;2023-05-23T14:11:37;100103.50;;;24.07;100.00
61318;BME280;47201;40.428;-8.436;2023-05-23T14:13:37;100099.53;;;23.73;100.00
61318;BME280;47201;40.428;-8.436;2023-05-23T14:15:38;100102.44;;;23.55;100.00
61318;BME280;47201;40.428;-8.436;2023-05-23T14:17:41;100104.97;;;23.44;96.16
61318;BME280;47201;40.428;-8.436;2023-05-23T14:20:02;100107.16;;;23.37;92.70
61318;BME280;47201;40.428;-8.436;2023-05-23T14:22:22;100111.28;;;23.28;90.84
61318;BME280;47201;40.428;-8.436;2023-05-23T14:24:22;100113.09;;;23.28;89.19
61318;BME280;47201;40.428;-8.436;2023-05-23T14:26:23;100105.00;;;23.29;83.98
61318;BME280;47201;40.428;-8.436;2023-05-23T14:28:32;100109.91;;;23.50;80.43
61318;BME280;47201;40.428;-8.436;2023-05-23T14:33:33;100101.25;;;24.14;76.76
61318;BME280;47201;40.428;-8.436;2023-05-23T14:43:30;100086.72;;;25.81;64.54
61318;BME280;47201;40.428;-8.436;2023-05-23T14:45:50;100079.44;;;25.84;64.70
61318;BME280;47201;40.428;-8.436;2023-05-23T14:47:51;100091.34;;;26.15;64.31
61318;BME280;47201;40.428;-8.436;2023-05-23T14:49:52;100083.03;;;26.07;63.53
61318;BME280;47201;40.428;-8.436;2023-05-23T14:52:11;100085.91;;;26.28;60.63